createdAt,value
2023-12-04T00:02:04.136Z,16.25
2023-12-04T00:04:31.610Z,18.83
2023-12-04T00:06:58.738Z,17.55
2023-12-04T00:09:26.355Z,23.73
2023-12-04T00:11:53.753Z,17.85
2023-12-04T00:14:22.002Z,16.13
2023-12-04T00:16:48.984Z,18.52
2023-12-04T00:19:18.649Z,21.48
2023-12-04T00:21:45.850Z,16.55
2023-12-04T00:24:15.566Z,20.55
2023-12-04T00:26:42.547Z,15.35
2023-12-04T00:29:09.539Z,18.50
2023-12-04T00:31:36.445Z,15.68
2023-12-04T00:34:03.648Z,16.95
2023-12-04T00:36:30.866Z,16.17
2023-12-04T00:38:57.928Z,17.75
2023-12-04T00:41:24.930Z,17.20
2023-12-04T00:43:52.273Z,22.75
2023-12-04T00:46:20.718Z,18.17
2023-12-04T00:48:47.949Z,16.55
2023-12-04T00:51:15.080Z,19.83
2023-12-04T00:53:42.078Z,18.17
2023-12-04T00:56:09.800Z,19.90
2023-12-04T00:58:36.843Z,18.92
2023-12-04T01:01:03.887Z,17.90
2023-12-04T01:03:34.294Z,17.42
2023-12-04T01:06:01.536Z,17.90
2023-12-04T01:08:29.836Z,20.10
2023-12-04T01:10:57.875Z,18.08
2023-12-04T01:13:24.946Z,15.52
2023-12-04T01:15:52.228Z,15.80
2023-12-04T01:18:19.629Z,19.60
2023-12-04T01:20:46.727Z,19.92
2023-12-04T01:23:13.638Z,18.15
2023-12-04T01:25:42.868Z,19.95
2023-12-04T01:28:09.910Z,21.10
2023-12-04T01:30:36.908Z,20.50
2023-12-04T01:33:03.904Z,17.77
2023-12-04T01:35:30.933Z,18.73
2023-12-04T01:37:57.873Z,18.63
2023-12-04T01:40:25.965Z,18.92
2023-12-04T01:42:53.068Z,18.83
2023-12-04T01:45:20.492Z,17.95
2023-12-04T01:47:48.458Z,20.88
2023-12-04T01:50:16.211Z,17.02
2023-12-04T01:52:44.579Z,19.30
2023-12-04T01:55:11.989Z,20.23
2023-12-04T01:57:39.080Z,19.23
2023-12-04T02:00:13.461Z,20.92
2023-12-04T02:02:41.936Z,17.23
2023-12-04T02:05:09.397Z,20.75
2023-12-04T02:07:39.086Z,18.85
2023-12-04T02:10:07.614Z,20.42
2023-12-04T02:12:36.120Z,19.30
2023-12-04T02:15:04.493Z,19.08
2023-12-04T02:17:32.460Z,20.10
2023-12-04T02:20:01.075Z,20.77
2023-12-04T02:22:28.112Z,20.55
2023-12-04T02:24:59.904Z,23.27
2023-12-04T02:27:29.445Z,22.08
2023-12-04T02:30:02.724Z,20.65
2023-12-04T02:32:31.526Z,21.63
2023-12-04T02:35:00.226Z,21.88
2023-12-04T02:37:27.379Z,19.38
2023-12-04T02:39:56.423Z,21.20
2023-12-04T02:42:26.076Z,19.02
2023-12-04T02:44:53.301Z,20.85
2023-12-04T02:47:20.383Z,19.30
2023-12-04T02:49:50.234Z,19.23
2023-12-04T02:52:17.192Z,18.52
2023-12-04T02:54:45.166Z,20.83
2023-12-04T02:57:12.324Z,18.45
2023-12-04T02:59:39.403Z,18.92
2023-12-04T03:02:07.805Z,22.55
2023-12-04T03:04:35.623Z,21.40
2023-12-04T03:07:03.195Z,21.15
2023-12-04T03:09:47.771Z,19.00
2023-12-04T03:12:16.931Z,20.17
2023-12-04T03:14:43.848Z,22.80
2023-12-04T03:17:10.848Z,21.08
2023-12-04T03:19:38.214Z,20.00
2023-12-04T03:22:05.282Z,21.08
2023-12-04T03:24:32.376Z,19.85
2023-12-04T03:26:59.449Z,19.40
2023-12-04T03:29:26.358Z,18.35
2023-12-04T03:31:53.265Z,19.23
2023-12-04T03:34:20.270Z,17.77
2023-12-04T03:36:47.268Z,18.88
2023-12-04T03:39:14.217Z,18.13
2023-12-04T03:41:41.242Z,16.00
2023-12-04T03:44:08.170Z,15.02
2023-12-04T03:46:35.155Z,17.15
2023-12-04T03:49:02.359Z,19.55
2023-12-04T03:51:29.384Z,18.45
2023-12-04T03:53:56.311Z,17.25
2023-12-04T03:56:23.372Z,19.88
2023-12-04T03:58:50.299Z,19.40
2023-12-04T04:01:17.338Z,20.58
2023-12-04T04:03:46.361Z,19.70
2023-12-04T04:06:13.446Z,18.98
2023-12-04T04:08:40.358Z,24.35
2023-12-04T04:11:07.561Z,20.98
2023-12-04T04:13:34.474Z,25.20
2023-12-04T04:16:01.474Z,18.27
2023-12-04T04:18:28.635Z,14.88
2023-12-04T04:20:56.663Z,19.23
2023-12-04T04:23:23.640Z,18.80
2023-12-04T04:25:50.687Z,20.90
2023-12-04T04:28:17.613Z,20.05
2023-12-04T04:30:44.567Z,20.35
2023-12-04T04:33:12.646Z,18.35
2023-12-04T04:35:39.668Z,19.15
2023-12-04T04:38:06.668Z,18.88
2023-12-04T04:40:33.652Z,20.52
2023-12-04T04:43:00.665Z,19.30
2023-12-04T04:45:30.481Z,20.48
2023-12-04T04:47:57.810Z,17.40
2023-12-04T04:50:24.730Z,19.42
2023-12-04T04:52:52.336Z,18.50
2023-12-04T04:55:46.107Z,19.55
2023-12-04T04:58:06.308Z,20.25
2023-12-04T05:00:33.649Z,21.75
2023-12-04T05:03:00.660Z,18.20
2023-12-04T05:05:27.596Z,19.85
2023-12-04T05:07:55.889Z,20.25
2023-12-04T05:10:23.906Z,18.05
2023-12-04T05:12:51.229Z,19.48
2023-12-04T05:15:18.197Z,21.58
2023-12-04T05:17:45.705Z,19.60
2023-12-04T05:20:13.182Z,22.58
2023-12-04T05:22:40.969Z,18.88
2023-12-04T05:25:08.226Z,21.58
2023-12-04T05:27:35.315Z,18.50
2023-12-04T05:30:02.396Z,19.48
2023-12-04T05:32:29.534Z,19.60
2023-12-04T05:34:56.672Z,22.33
2023-12-04T05:37:23.669Z,20.60
2023-12-04T05:39:50.656Z,21.90
2023-12-04T05:42:17.630Z,21.27
2023-12-04T05:44:44.770Z,23.55
2023-12-04T05:47:13.237Z,21.63
2023-12-04T05:49:40.254Z,24.13
2023-12-04T05:52:07.493Z,20.67
2023-12-04T05:54:34.443Z,22.65
2023-12-04T05:57:04.090Z,22.85
2023-12-04T05:59:31.193Z,17.90
2023-12-04T06:02:00.890Z,19.58
2023-12-04T06:04:27.890Z,23.02
2023-12-04T06:06:56.060Z,20.00
2023-12-04T06:09:23.004Z,22.80
2023-12-04T06:11:50.025Z,23.38
2023-12-04T06:14:18.043Z,21.70
2023-12-04T06:16:45.013Z,20.95
2023-12-04T06:19:12.059Z,25.38
2023-12-04T06:21:39.127Z,21.35
2023-12-04T06:24:09.967Z,21.65
2023-12-04T06:26:40.518Z,21.35
2023-12-04T06:29:07.548Z,21.23
2023-12-04T06:31:34.577Z,25.52
2023-12-04T06:34:01.822Z,21.63
2023-12-04T06:36:31.880Z,22.63
2023-12-04T06:39:00.335Z,24.77
2023-12-04T06:41:29.830Z,23.20
2023-12-04T06:43:56.889Z,19.85
2023-12-04T06:46:25.100Z,22.25
2023-12-04T06:48:54.973Z,22.75
2023-12-04T06:51:22.037Z,24.67
2023-12-04T06:53:48.989Z,24.67
2023-12-04T06:56:19.289Z,17.17
2023-12-04T06:58:47.818Z,23.70
2023-12-04T07:01:14.791Z,29.30
2023-12-04T07:03:41.956Z,53.28
2023-12-04T07:06:09.061Z,31.17
2023-12-04T07:08:38.989Z,31.60
2023-12-04T07:11:07.368Z,28.88
2023-12-04T07:13:34.333Z,23.67
2023-12-04T07:16:01.872Z,27.38
2023-12-04T07:18:28.981Z,21.70
2023-12-04T07:20:55.966Z,21.70
2023-12-04T07:23:25.734Z,24.00
2023-12-04T07:28:21.633Z,28.73
2023-12-04T07:30:48.639Z,26.52
2023-12-04T07:33:15.744Z,21.27
2023-12-04T07:35:42.890Z,18.98
2023-12-04T07:38:09.920Z,20.67
2023-12-04T07:40:37.100Z,23.38
2023-12-04T07:43:04.126Z,21.42
2023-12-04T07:45:33.721Z,23.25
2023-12-04T07:48:00.770Z,37.38
2023-12-04T07:50:27.767Z,29.60
2023-12-04T07:52:54.898Z,24.73
2023-12-04T07:55:23.090Z,25.42
2023-12-04T07:57:53.903Z,25.88
2023-12-04T08:00:21.118Z,34.00
2023-12-04T08:02:48.106Z,27.77
2023-12-04T08:05:15.145Z,40.05
2023-12-04T08:07:42.180Z,27.17
2023-12-04T08:10:10.040Z,34.15
2023-12-04T08:12:37.086Z,30.50
2023-12-04T08:15:05.397Z,38.10
2023-12-04T08:17:32.461Z,30.20
2023-12-04T08:19:59.847Z,33.15
2023-12-04T08:22:28.141Z,32.13
2023-12-04T08:24:55.414Z,39.15
2023-12-04T08:27:22.429Z,41.58
2023-12-04T08:29:49.433Z,41.78
2023-12-04T08:32:17.007Z,33.63
2023-12-04T08:34:43.947Z,34.67
2023-12-04T08:37:11.400Z,73.07
2023-12-04T08:39:39.661Z,47.67
2023-12-04T08:42:09.767Z,50.00
2023-12-04T08:44:42.288Z,37.80
2023-12-04T08:47:09.286Z,32.30
2023-12-04T08:49:43.142Z,36.67
2023-12-04T08:52:14.032Z,42.17
2023-12-04T08:54:42.768Z,41.45
2023-12-04T08:57:10.376Z,42.05
2023-12-04T08:59:37.441Z,35.97
2023-12-04T09:02:05.323Z,35.00
2023-12-04T09:04:33.224Z,63.33
2023-12-04T09:09:30.610Z,39.30
2023-12-04T09:11:58.088Z,44.15
2023-12-04T09:14:25.179Z,42.63
2023-12-04T09:16:52.197Z,44.88
2023-12-04T09:19:19.432Z,44.20
2023-12-04T09:21:46.996Z,77.95
2023-12-04T09:24:15.469Z,49.90
2023-12-04T09:26:42.548Z,34.65
2023-12-04T09:29:12.551Z,52.40
2023-12-04T09:31:39.534Z,40.47
2023-12-04T09:34:10.561Z,34.65
2023-12-04T09:36:37.635Z,54.50
2023-12-04T09:39:05.375Z,30.88
2023-12-04T09:41:32.405Z,27.75
2023-12-04T09:43:59.460Z,26.10
2023-12-04T09:46:26.553Z,26.48
2023-12-04T09:48:53.776Z,38.15
2023-12-04T09:51:21.913Z,23.38
2023-12-04T09:53:49.695Z,28.10
2023-12-04T09:56:17.534Z,40.20
2023-12-04T09:58:45.988Z,28.10
2023-12-04T10:01:14.486Z,23.45
2023-12-04T10:03:42.760Z,46.55
2023-12-04T10:06:10.163Z,22.92
2023-12-04T10:08:37.191Z,26.77
2023-12-04T10:11:04.370Z,35.90
2023-12-04T10:13:56.577Z,41.60
2023-12-04T10:16:34.638Z,27.42
2023-12-04T10:19:17.732Z,30.33
2023-12-04T10:21:48.892Z,47.72
2023-12-04T10:24:36.670Z,24.23
2023-12-04T10:27:06.537Z,27.42
2023-12-04T10:29:49.832Z,58.03
2023-12-04T10:32:23.521Z,161.00
2023-12-04T10:34:50.865Z,38.55
2023-12-04T10:37:18.395Z,46.22
2023-12-04T10:39:49.402Z,57.00
2023-12-04T10:42:37.063Z,50.83
2023-12-04T10:45:07.586Z,40.90
2023-12-04T10:47:35.938Z,45.47
2023-12-04T10:50:03.984Z,58.80
2023-12-04T10:52:33.077Z,49.72
2023-12-04T10:55:01.450Z,114.95
2023-12-04T10:57:34.632Z,86.00
2023-12-04T11:00:06.459Z,195.52
2023-12-04T11:02:35.161Z,126.90
2023-12-04T11:05:15.876Z,175.63
2023-12-04T11:08:13.037Z,53.90
2023-12-04T11:10:33.087Z,95.22
2023-12-04T11:13:16.286Z,59.42
2023-12-04T11:15:49.124Z,76.85
2023-12-04T11:18:16.659Z,38.70
2023-12-04T11:20:49.647Z,37.25
2023-12-04T11:23:17.182Z,53.40
2023-12-04T11:25:47.263Z,63.35
2023-12-04T11:28:14.633Z,96.40
2023-12-04T11:30:43.332Z,58.33
2023-12-04T11:33:10.473Z,63.72
2023-12-04T11:35:37.676Z,41.72
2023-12-04T11:38:06.119Z,46.42
2023-12-04T11:40:33.176Z,39.97
2023-12-04T11:43:00.281Z,45.60
2023-12-04T11:45:27.483Z,36.33
2023-12-04T11:47:58.248Z,39.10
2023-12-04T11:50:25.861Z,46.35
2023-12-04T11:52:53.360Z,32.20
2023-12-04T11:55:23.711Z,37.38
2023-12-04T11:57:55.706Z,41.22
2023-12-04T12:00:23.994Z,42.70
2023-12-04T12:03:15.664Z,45.55
2023-12-04T12:05:42.689Z,48.42
2023-12-04T12:08:12.470Z,61.38
2023-12-04T12:10:39.498Z,69.82
2023-12-04T12:13:06.563Z,56.42
2023-12-04T12:15:34.186Z,64.35
2023-12-04T12:18:01.373Z,46.50
2023-12-04T12:20:28.575Z,70.72
2023-12-04T12:22:55.634Z,48.45
2023-12-04T12:25:24.034Z,79.00
2023-12-04T12:27:53.246Z,58.05
2023-12-04T12:30:20.498Z,44.33
2023-12-04T12:32:47.553Z,47.75
2023-12-04T12:35:14.725Z,40.03
2023-12-04T12:37:41.751Z,56.33
2023-12-04T12:40:11.820Z,66.22
2023-12-04T12:42:45.398Z,47.17
2023-12-04T12:45:13.342Z,42.25
2023-12-04T12:47:44.448Z,45.10
2023-12-04T12:50:12.292Z,40.40
2023-12-04T12:52:39.646Z,42.13
2023-12-04T12:55:06.756Z,47.33
2023-12-04T12:57:33.945Z,43.38
2023-12-04T13:00:00.952Z,53.60
2023-12-04T13:02:28.075Z,40.92
2023-12-04T13:04:57.204Z,41.88
2023-12-04T13:07:24.486Z,41.67
2023-12-04T13:09:54.437Z,52.15
2023-12-04T13:12:21.730Z,42.30
2023-12-04T13:14:48.731Z,35.40
2023-12-04T13:17:15.671Z,34.28
2023-12-04T13:19:43.055Z,36.70
2023-12-04T13:22:11.198Z,42.40
2023-12-04T13:24:38.257Z,41.85
2023-12-04T13:27:05.611Z,45.33
2023-12-04T13:29:32.647Z,43.45
2023-12-04T13:32:00.552Z,41.33
2023-12-04T13:34:27.791Z,43.03
2023-12-04T13:36:54.841Z,47.20
2023-12-04T13:39:28.961Z,41.53
2023-12-04T13:42:14.560Z,45.05
2023-12-04T13:44:42.545Z,37.72
2023-12-04T13:47:09.789Z,38.25
2023-12-04T13:49:36.770Z,37.53
2023-12-04T13:52:08.493Z,30.48
2023-12-04T13:54:50.343Z,29.95
2023-12-04T13:57:29.331Z,29.13
2023-12-04T13:59:58.999Z,23.85
2023-12-04T14:02:26.554Z,31.23
2023-12-04T14:04:53.931Z,30.05
2023-12-04T14:07:22.638Z,47.97
2023-12-04T14:09:49.944Z,41.05
2023-12-04T14:12:17.521Z,44.05
2023-12-04T14:14:44.647Z,33.17
2023-12-04T14:17:13.161Z,32.58
2023-12-04T14:19:41.013Z,43.65
2023-12-04T14:22:10.417Z,39.72
2023-12-04T14:24:38.327Z,47.90
2023-12-04T14:27:06.509Z,43.58
2023-12-04T14:29:33.463Z,39.80
2023-12-04T14:32:00.446Z,34.83
2023-12-04T14:34:30.026Z,74.93
2023-12-04T14:36:59.669Z,50.72
2023-12-04T14:39:26.851Z,64.55
2023-12-04T14:41:54.643Z,103.32
2023-12-04T14:44:21.658Z,51.05
2023-12-04T14:46:49.229Z,44.35
2023-12-04T14:49:17.017Z,43.72
2023-12-04T14:51:48.677Z,46.10
2023-12-04T14:54:38.717Z,41.08
2023-12-04T14:57:21.215Z,46.50
2023-12-04T15:00:13.959Z,40.92
2023-12-04T15:02:50.188Z,46.72
2023-12-04T15:05:17.463Z,42.78
2023-12-04T15:07:53.502Z,45.40
2023-12-04T15:10:26.443Z,43.65
2023-12-04T15:13:02.370Z,42.30
2023-12-04T15:15:47.480Z,46.30
2023-12-04T15:18:33.083Z,48.58
2023-12-04T15:21:02.738Z,53.63
2023-12-04T15:23:29.771Z,47.17
2023-12-04T15:25:57.083Z,53.10
2023-12-04T15:28:24.393Z,45.80
2023-12-04T15:30:51.442Z,43.13
2023-12-04T15:33:18.742Z,51.05
2023-12-04T15:35:45.801Z,98.03
2023-12-04T15:38:12.870Z,74.57
2023-12-04T15:40:40.462Z,60.92
2023-12-04T15:43:07.654Z,57.83
2023-12-04T15:45:37.816Z,48.22
2023-12-04T15:48:05.046Z,49.10
2023-12-04T15:50:32.608Z,53.13
2023-12-04T15:53:00.917Z,47.60
2023-12-04T15:55:28.026Z,67.90
2023-12-04T15:57:58.628Z,40.30
2023-12-04T16:00:26.070Z,51.50
2023-12-04T16:02:53.158Z,46.08
2023-12-04T16:05:20.409Z,41.05
2023-12-04T16:07:47.690Z,45.05
2023-12-04T16:10:16.880Z,42.60
2023-12-04T16:12:44.113Z,49.10
2023-12-04T16:15:11.370Z,41.67
2023-12-04T16:17:39.246Z,41.88
2023-12-04T16:20:11.806Z,50.33
2023-12-04T16:22:41.555Z,46.83
2023-12-04T16:25:08.829Z,47.05
2023-12-04T16:27:35.829Z,48.28
2023-12-04T16:30:03.015Z,44.13
2023-12-04T16:32:30.027Z,50.50
2023-12-04T16:34:58.514Z,50.67
2023-12-04T16:37:28.071Z,44.85
2023-12-04T16:39:55.574Z,35.65
2023-12-04T16:42:23.163Z,36.40
2023-12-04T16:44:50.214Z,44.78
2023-12-04T16:47:17.243Z,37.65
2023-12-04T16:49:44.510Z,35.60
2023-12-04T16:52:16.474Z,38.20
2023-12-04T16:54:43.840Z,56.83
2023-12-04T16:57:11.447Z,60.28
2023-12-04T16:59:39.025Z,72.28
2023-12-04T17:02:07.215Z,48.72
2023-12-04T17:04:35.304Z,51.58
2023-12-04T17:07:02.532Z,50.67
2023-12-04T17:09:30.129Z,54.92
2023-12-04T17:11:57.214Z,59.95
2023-12-04T17:14:24.260Z,87.43
2023-12-04T17:16:51.431Z,69.65
2023-12-04T17:19:18.560Z,51.67
2023-12-04T17:21:45.648Z,73.50
2023-12-04T17:24:12.639Z,73.93
2023-12-04T17:26:39.638Z,58.67
2023-12-04T17:29:06.632Z,53.58
2023-12-04T17:31:33.580Z,68.15
2023-12-04T17:34:00.778Z,66.68
2023-12-04T17:36:28.918Z,71.53
2023-12-04T17:38:56.153Z,70.22
2023-12-04T17:41:23.295Z,52.50
2023-12-04T17:43:50.335Z,65.78
2023-12-04T17:46:17.334Z,62.45
2023-12-04T17:48:46.421Z,62.38
2023-12-04T17:51:17.276Z,82.88
2023-12-04T17:53:44.700Z,72.57
2023-12-04T17:56:11.889Z,176.02
2023-12-04T17:58:38.807Z,168.85
2023-12-04T18:01:07.065Z,225.85
2023-12-04T18:03:36.891Z,191.25
2023-12-04T18:06:04.714Z,192.13
2023-12-04T18:08:32.737Z,222.48
2023-12-04T18:10:59.684Z,200.73
2023-12-04T18:13:26.858Z,191.15
2023-12-04T18:15:53.886Z,187.75
2023-12-04T18:18:21.843Z,201.35
2023-12-04T18:20:49.150Z,196.57
2023-12-04T18:23:16.124Z,217.25
2023-12-04T18:25:43.677Z,211.43
2023-12-04T18:28:11.506Z,207.45
2023-12-04T18:30:38.640Z,211.15
2023-12-04T18:33:06.730Z,199.32
2023-12-04T18:35:33.986Z,201.77
2023-12-04T18:38:11.024Z,196.52
2023-12-04T18:40:38.161Z,206.57
2023-12-04T18:43:05.423Z,177.68
2023-12-04T18:45:35.000Z,178.10
2023-12-04T18:48:05.345Z,163.93
2023-12-04T18:50:33.139Z,167.50
2023-12-04T18:53:00.584Z,156.20
2023-12-04T18:55:27.885Z,167.95
2023-12-04T18:57:54.995Z,164.15
2023-12-04T19:00:26.308Z,132.50
2023-12-04T19:02:53.842Z,123.68
2023-12-04T19:05:21.454Z,122.30
2023-12-04T19:07:48.649Z,119.90
2023-12-04T19:10:15.689Z,124.30
2023-12-04T19:12:42.720Z,125.18
2023-12-04T19:15:13.349Z,153.13
2023-12-04T19:17:40.521Z,148.80
2023-12-04T19:20:10.603Z,136.23
2023-12-04T19:22:37.683Z,147.50
2023-12-04T19:25:04.728Z,167.07
2023-12-04T19:27:31.719Z,179.77
2023-12-04T19:29:58.783Z,177.13
2023-12-04T19:32:25.966Z,181.65
2023-12-04T19:34:53.082Z,187.70
2023-12-04T19:37:20.136Z,193.75
2023-12-04T19:39:47.359Z,190.20
2023-12-04T19:42:14.459Z,166.98
2023-12-04T19:44:44.968Z,168.43
2023-12-04T19:47:11.969Z,172.30
2023-12-04T19:49:44.934Z,161.38
2023-12-04T19:52:12.154Z,177.55
2023-12-04T19:54:42.291Z,159.45
2023-12-04T19:57:09.428Z,166.13
2023-12-04T19:59:37.021Z,174.15
2023-12-04T20:02:05.088Z,169.77
2023-12-04T20:04:32.810Z,184.23
2023-12-04T20:06:59.910Z,181.20
2023-12-04T20:09:26.949Z,198.43
2023-12-04T20:11:53.969Z,196.35
2023-12-04T20:14:20.966Z,193.65
2023-12-04T20:16:48.356Z,189.32
2023-12-04T20:19:15.463Z,184.88
2023-12-04T20:21:43.736Z,171.82
2023-12-04T20:24:10.882Z,174.38
2023-12-04T20:26:37.940Z,178.65
2023-12-04T20:29:04.854Z,170.98
2023-12-04T20:31:31.879Z,175.63
2023-12-04T20:33:59.142Z,191.30
2023-12-04T20:36:26.344Z,197.35
2023-12-04T20:38:53.329Z,220.00
2023-12-04T20:41:23.226Z,236.15
2023-12-04T20:43:50.642Z,240.60
2023-12-04T20:46:17.669Z,229.30
2023-12-04T20:48:46.066Z,227.40
2023-12-04T20:51:14.643Z,223.23
2023-12-04T20:53:41.773Z,208.85
2023-12-04T20:56:09.144Z,208.70
2023-12-04T20:58:36.174Z,193.65
2023-12-04T21:01:04.204Z,193.32
2023-12-04T21:03:31.398Z,228.18
2023-12-04T21:05:58.492Z,238.35
2023-12-04T21:08:25.531Z,243.50
2023-12-04T21:10:52.713Z,243.88
2023-12-04T21:13:19.642Z,206.93
2023-12-04T21:15:48.172Z,216.52
2023-12-04T21:18:16.143Z,204.20
2023-12-04T21:20:44.169Z,190.02
2023-12-04T21:23:11.317Z,181.40
2023-12-04T21:25:38.636Z,198.00
2023-12-04T21:28:07.316Z,185.75
2023-12-04T21:30:34.667Z,180.48
2023-12-04T21:33:01.776Z,178.75
2023-12-04T21:35:28.806Z,232.68
2023-12-04T21:37:57.600Z,207.90
2023-12-04T21:40:24.690Z,193.35
2023-12-04T21:42:51.644Z,186.25
2023-12-04T21:45:22.388Z,186.32
2023-12-04T21:47:49.778Z,195.60
2023-12-04T21:50:17.101Z,223.15
2023-12-04T21:52:44.235Z,196.35
2023-12-04T21:55:13.438Z,188.38
2023-12-04T21:57:40.623Z,211.40
2023-12-04T22:00:08.639Z,212.13
2023-12-04T22:02:35.706Z,206.95
2023-12-04T22:05:02.903Z,227.07
2023-12-04T22:07:30.192Z,213.52
2023-12-04T22:09:57.732Z,223.60
2023-12-04T22:12:25.339Z,215.57
2023-12-04T22:14:52.385Z,201.32
2023-12-04T22:17:20.544Z,200.18
2023-12-04T22:19:47.609Z,200.57
2023-12-04T22:22:14.688Z,194.60
2023-12-04T22:24:41.886Z,197.50
2023-12-04T22:27:08.877Z,207.35
2023-12-04T22:29:36.030Z,239.48
2023-12-04T22:32:03.114Z,235.15
2023-12-04T22:34:30.197Z,233.85
2023-12-04T22:36:57.459Z,242.45
2023-12-04T22:39:24.839Z,209.05
2023-12-04T22:41:51.879Z,183.90
2023-12-04T22:44:18.852Z,171.38
2023-12-04T22:46:45.815Z,147.43
2023-12-04T22:49:13.233Z,127.95
2023-12-04T22:51:40.467Z,121.88
2023-12-04T22:54:07.553Z,115.75
2023-12-04T22:56:34.669Z,110.43
2023-12-04T22:59:01.698Z,106.88
2023-12-04T23:01:28.752Z,120.88
2023-12-04T23:03:56.396Z,137.13
2023-12-04T23:06:24.191Z,156.20
2023-12-04T23:08:51.296Z,173.55
2023-12-04T23:11:18.268Z,139.13
2023-12-04T23:13:45.611Z,154.30
2023-12-04T23:16:15.349Z,165.20
2023-12-04T23:18:42.980Z,148.82
2023-12-04T23:21:10.097Z,154.93
2023-12-04T23:23:40.285Z,163.55
2023-12-04T23:26:07.831Z,161.30
2023-12-04T23:28:34.886Z,140.50
2023-12-04T23:31:02.210Z,152.55
2023-12-04T23:33:29.300Z,159.38
2023-12-04T23:35:56.420Z,160.65
2023-12-04T23:38:23.509Z,158.80
2023-12-04T23:40:50.460Z,143.18
2023-12-04T23:43:17.355Z,137.40
2023-12-04T23:45:52.926Z,151.00
2023-12-04T23:48:23.155Z,147.63
2023-12-04T23:50:50.305Z,138.05
2023-12-04T23:53:17.288Z,155.93
2023-12-04T23:55:44.259Z,147.07
2023-12-04T23:58:11.732Z,141.98
